Hermosillo, México

6:35 PM MST en Abril 23, 2017 (GMT -0700)
Campo Santo Niño | | Change Station

Alt 407 ft 28.97 °N, 111.25 °W | Updated 1 second ago

Despejado
Despejado
90.8 ° F
Sensación térmica 87 ° F
N
7.0
Viento Variable Viento desde SO
Gusts 8.0 mph

Hoy
Alta -- | Baja -- ° F
--% Posibilidad de precipitaciones
Ayer
Alta -- | Baja -- ° F
Precip. -- pul
Presión 29.73 pul
Visibilidad 10.0 Millas
Nubes Despejado
Índice de calor 87 ° F
Punto de rocío 31 ° F
Humedad 12%
Precipitaciones 0.00 pul
Espesor de la nieve No disponible.
5:50 AM 6:55 PM
Creciente menguante, 8% visible
METAR MMHO 240044Z 24009KT 10SM SKC 37/M05 A2973 RMK HZY
Presión 29.73 pul
Visibilidad 10.0 Millas
Nubes Despejado
Índice de calor 87 ° F
Punto de rocío 31 ° F
Humedad 12%
Precipitaciones 0.00 pul
Espesor de la nieve No disponible.
5:50 AM 6:55 PM
Creciente menguante, 8% visible
METAR MMHO 240044Z 24009KT 10SM SKC 37/M05 A2973 RMK HZY

Get Severe Weather Alerts

Thanks for signing up!

Be on the lookout for a verification email in your inbox.

You'll start receiving the daily forecast at 8 AM.

×

10-Day Weather Forecast

No radar image for this location.
×

Almanac

Astronomía

Apr. 23, 2017 Salida Puesta
Hora real
Crepúsculo civil
Crepúsculo náutico
Crepúsculo astronómico
Luna
Horas de luz
Horas de luz
Tomorrow will be .
, % of the Moon is Illuminated

Extremos de hoy

Máximos del país Bajas del país

Community

WunderPhotos

WunderBlog® & News

Nearby

Calidad del aire

  Calidad del aire Índice AQ Contaminante
Not available.

Grosos de nieve

Estación Profundido Altura

Actividad de terremotos

Ciudad Distance Mag. Tiempo y dato
Magnitud mínima muestra es 2,5.

Temperaturas de aguas costeras

Lugar Temperatura

Stations

Estaciones meteorológicas cercanas

Ubicación de la estación Temp. Vientos helados Punto de rocío Humedad Viento Precip. Alt Actualizado Tipo